Time;durP1;ratioP1;P1;durP2;ratioP2;P2;SDS_P1;SDS_P2;PMS_P1;PMS_P2;Temp;Humidity;BMP_temperature;BMP_pressure;BME280_temperature;BME280_humidity;BME280_pressure;Samples;Min_cycle;Max_cycle;Signal;HPM_P1;HPM_P2
2023/05/11 00:01:06;;;;;;;28.70;11.15;;;;;;;10.99;100.00;101515.41;5000395;28;20041;-83
2023/05/11 00:03:34;;;;;;;25.27;10.48;;;;;;;10.98;100.00;101510.09;4989407;28;20042;-82
2023/05/11 00:06:02;;;;;;;22.25;10.90;;;;;;;10.96;100.00;101519.75;4994035;28;20057;-83
2023/05/11 00:08:29;;;;;;;18.58;10.10;;;;;;;10.97;100.00;101505.72;4988080;28;20045;-82
2023/05/11 00:10:59;;;;;;;60.70;13.25;;;;;;;10.95;100.00;101507.44;5000012;28;20053;-84
2023/05/11 00:13:27;;;;;;;37.17;13.20;;;;;;;10.90;100.00;101510.88;5016517;28;22555;-83
2023/05/11 00:15:58;;;;;;;36.05;11.73;;;;;;;10.86;100.00;101519.63;5017976;28;20535;-83
2023/05/11 00:18:25;;;;;;;58.17;13.00;;;;;;;10.81;100.00;101509.88;5010981;28;20056;-84
2023/05/11 00:20:53;;;;;;;28.17;10.80;;;;;;;10.76;100.00;101504.56;4980153;28;20534;-82
2023/05/11 00:23:21;;;;;;;46.17;12.68;;;;;;;10.77;100.00;101513.34;5022526;28;20041;-83
2023/05/11 00:25:48;;;;;;;43.10;12.52;;;;;;;10.72;100.00;101511.56;4981355;28;20065;-83
2023/05/11 00:28:15;;;;;;;17.23;9.95;;;;;;;10.71;100.00;101517.69;4994422;28;20111;-83
2023/05/11 00:30:44;;;;;;;20.98;10.15;;;;;;;10.73;100.00;101509.78;5015090;28;20050;-83
2023/05/11 00:33:11;;;;;;;15.73;10.85;;;;;;;10.76;100.00;101515.13;5017788;28;20041;-83
2023/05/11 00:35:38;;;;;;;54.05;13.43;;;;;;;10.79;100.00;101516.91;4983698;28;20049;-82
2023/05/11 00:38:06;;;;;;;17.50;11.23;;;;;;;10.78;100.00;101509.88;5014893;28;20046;-82
2023/05/11 00:40:34;;;;;;;21.25;10.90;;;;;;;10.80;100.00;101509.00;5013570;28;20073;-83
2023/05/11 00:43:02;;;;;;;21.27;10.95;;;;;;;10.80;100.00;101509.00;4993039;28;20081;-82
2023/05/11 00:45:29;;;;;;;26.60;11.32;;;;;;;10.80;100.00;101509.00;5003974;28;20042;-82
2023/05/11 00:47:57;;;;;;;22.80;10.68;;;;;;;10.81;100.00;101510.81;5001123;28;20452;-82
2023/05/11 00:50:25;;;;;;;18.40;8.18;;;;;;;10.82;100.00;101503.78;4983236;28;20045;-83
2023/05/11 00:52:54;;;;;;;20.25;9.98;;;;;;;10.82;100.00;101507.28;4991890;28;20053;-81
2023/05/11 00:55:22;;;;;;;29.73;8.43;;;;;;;10.82;100.00;101511.69;5035768;28;20058;-82
2023/05/11 00:57:49;;;;;;;18.50;8.77;;;;;;;10.80;100.00;101513.41;4992447;28;20046;-81
2023/05/11 01:00:17;;;;;;;30.63;11.20;;;;;;;10.80;100.00;101513.41;5010682;28;20049;-82
2023/05/11 01:02:45;;;;;;;25.75;9.90;;;;;;;10.77;100.00;101514.25;4998442;28;20061;-81
2023/05/11 01:05:12;;;;;;;21.77;10.32;;;;;;;10.75;100.00;101513.34;4977257;28;20087;-82
2023/05/11 01:08:23;;;;;;;15.93;8.27;;;;;;;10.76;100.00;101512.47;4982712;28;20515;-81
2023/05/11 01:11:11;;;;;;;15.82;7.78;;;;;;;10.70;100.00;101508.00;4997663;28;20041;-81
2023/05/11 01:13:44;;;;;;;9.93;7.03;;;;;;;10.67;100.00;101507.97;5017259;28;20050;-83
2023/05/11 01:16:18;;;;;;;8.05;6.22;;;;;;;10.68;100.00;101508.84;5014667;28;20407;-83
2023/05/11 01:19:15;;;;;;;12.18;6.30;;;;;;;10.64;100.00;101507.03;5018022;28;20050;-83
2023/05/11 01:21:45;;;;;;;9.57;5.93;;;;;;;10.62;100.00;101512.28;4968535;28;20050;-82
2023/05/11 01:24:36;;;;;;;10.55;7.22;;;;;;;10.61;100.00;101513.16;5002966;28;20046;-83
2023/05/11 01:27:22;;;;;;;9.77;6.63;;;;;;;10.61;100.00;101510.53;5008258;28;20064;-83
2023/05/11 01:30:11;;;;;;;10.57;7.90;;;;;;;10.62;100.00;101511.41;5005299;28;20043;-84
2023/05/11 01:32:41;;;;;;;14.77;8.18;;;;;;;10.63;100.00;101515.81;5018191;28;20058;-84
2023/05/11 01:35:18;;;;;;;13.77;8.50;;;;;;;10.65;100.00;101514.09;5014549;28;20050;-83
2023/05/11 01:37:49;;;;;;;14.88;9.10;;;;;;;10.66;100.00;101515.84;4972632;28;20046;-82
2023/05/11 01:40:20;;;;;;;13.75;8.40;;;;;;;10.66;100.00;101516.75;5014918;28;20049;-83
2023/05/11 01:42:48;;;;;;;;;;;;;;;10.64;100.00;101515.84;4989020;28;20042;-83
2023/05/11 01:45:17;;;;;;;13.63;9.00;;;;;;;10.65;100.00;101516.72;4992466;28;20009;-83
2023/05/11 01:47:48;;;;;;;14.50;9.15;;;;;;;10.63;100.00;101508.78;5018067;28;20057;-83
2023/05/11 01:50:20;;;;;;;12.65;8.65;;;;;;;10.66;100.00;101523.75;5014919;28;20064;-84
2023/05/11 01:52:50;;;;;;;11.85;8.23;;;;;;;10.63;100.00;101519.34;4967079;28;20435;-82
2023/05/11 01:55:21;;;;;;;10.93;8.70;;;;;;;10.62;100.00;101530.72;5026317;28;20050;-84
2023/05/11 01:57:51;;;;;;;11.57;8.15;;;;;;;10.63;100.00;101526.38;5016482;28;20050;-85
2023/05/11 02:00:19;;;;;;;11.02;8.30;;;;;;;10.64;100.00;101530.75;5007074;28;20050;-84
2023/05/11 02:02:48;;;;;;;14.15;8.93;;;;;;;10.64;100.00;101520.22;5016548;28;20045;-82
2023/05/11 02:05:21;;;;;;;15.07;9.52;;;;;;;10.63;100.00;101518.47;5019011;28;20489;-83
2023/05/11 02:07:50;;;;;;;17.42;9.70;;;;;;;10.62;100.00;101529.84;4977153;28;20558;-81
2023/05/11 02:10:19;;;;;;;18.95;10.65;;;;;;;10.62;100.00;101529.84;4997582;28;20048;-83
2023/05/11 02:12:51;;;;;;;40.95;13.02;;;;;;;10.61;100.00;101528.09;4998068;28;20399;-82
2023/05/11 02:15:22;;;;;;;18.05;9.70;;;;;;;10.56;100.00;101530.66;5024575;28;21039;-82
2023/05/11 02:17:52;;;;;;;15.65;9.27;;;;;;;10.57;100.00;101535.06;5017005;28;20053;-83
2023/05/11 02:20:20;;;;;;;13.10;9.27;;;;;;;10.56;100.00;101527.13;5018089;28;20056;-83
2023/05/11 02:22:49;;;;;;;12.43;8.40;;;;;;;10.54;100.00;101527.09;5010938;28;20053;-83
2023/05/11 02:25:17;;;;;;;13.85;9.90;;;;;;;10.51;100.00;101530.59;4976378;28;20064;-83
2023/05/11 02:27:45;;;;;;;12.57;9.50;;;;;;;10.50;100.00;101530.56;5009935;28;20660;-82
2023/05/11 02:30:13;;;;;;;12.57;10.05;;;;;;;10.50;100.00;101531.44;5010322;28;20049;-83
2023/05/11 02:32:51;;;;;;;12.48;9.43;;;;;;;10.52;100.00;101527.09;5010509;28;20053;-82
2023/05/11 02:35:27;;;;;;;17.85;10.63;;;;;;;10.56;100.00;101540.31;5005782;28;20687;-83
2023/05/11 02:37:58;;;;;;;18.70;10.95;;;;;;;10.51;100.00;101530.59;5016059;28;20052;-83
2023/05/11 02:40:37;;;;;;;14.88;10.27;;;;;;;10.46;100.00;101534.91;4973526;28;20052;-84
2023/05/11 02:43:11;;;;;;;21.45;12.18;;;;;;;10.42;100.00;101540.13;5022911;28;20048;-82
2023/05/11 02:45:46;;;;;;;13.13;9.32;;;;;;;10.38;100.00;101544.47;5029327;28;20057;-83
2023/05/11 02:48:22;;;;;;;11.57;8.77;;;;;;;10.34;100.00;101545.28;5002747;28;20045;-82
2023/05/11 02:50:53;;;;;;;11.93;7.68;;;;;;;10.31;100.00;101548.72;5017974;28;20049;-83
2023/05/11 02:53:27;;;;;;;11.02;8.30;;;;;;;10.25;100.00;101556.50;5014037;28;20049;-82
2023/05/11 02:55:55;;;;;;;16.75;9.38;;;;;;;10.19;100.00;101540.63;5003149;28;20041;-83
2023/05/11 02:58:24;;;;;;;17.08;9.05;;;;;;;10.14;100.00;101556.34;5001886;28;20044;-83
2023/05/11 03:01:07;;;;;;;18.10;9.88;;;;;;;10.05;100.00;101558.81;4991777;28;20049;-83
2023/05/11 03:03:35;;;;;;;;;;;;;;;9.98;100.00;101556.03;5024298;28;20050;-81
2023/05/11 03:06:03;;;;;;;16.55;9.45;;;;;;;9.95;100.00;101556.91;5006919;28;19921;-83
2023/05/11 03:08:31;;;;;;;14.60;9.15;;;;;;;9.95;100.00;101556.91;5021367;28;20089;-83
2023/05/11 03:10:59;;;;;;;14.00;8.68;;;;;;;9.94;100.00;101553.38;4971123;28;20057;-83
2023/05/11 03:13:28;;;;;;;15.32;8.07;;;;;;;9.88;100.00;101549.75;4986801;28;20459;-82
2023/05/11 03:16:02;;;;;;;14.68;7.00;;;;;;;9.83;100.00;101557.56;5003235;28;20056;-82
2023/05/11 03:18:35;;;;;;;8.32;6.68;;;;;;;9.82;100.00;101561.06;4980591;28;20056;-83
2023/05/11 03:21:04;;;;;;;10.85;6.68;;;;;;;9.85;100.00;101557.56;5025306;28;20057;-83
2023/05/11 03:23:34;;;;;;;8.18;5.97;;;;;;;9.85;100.00;101554.94;5009271;28;20045;-83
2023/05/11 03:26:03;;;;;;;9.50;6.38;;;;;;;9.81;100.00;101556.66;5037669;28;20045;-83
2023/05/11 03:28:31;;;;;;;8.93;5.97;;;;;;;9.75;100.00;101551.28;4960710;28;20061;-82
2023/05/11 03:31:08;;;;;;;9.63;5.97;;;;;;;9.68;100.00;101550.28;5028681;28;20045;-83
2023/05/11 03:33:36;;;;;;;8.90;6.75;;;;;;;9.67;100.00;101548.50;4989177;28;20046;-82
2023/05/11 03:36:09;;;;;;;12.60;7.03;;;;;;;9.69;100.00;101556.44;4998319;28;20060;-83
2023/05/11 03:38:40;;;;;;;12.02;7.55;;;;;;;9.72;100.00;101543.34;5014939;28;20534;-83
2023/05/11 03:41:16;;;;;;;12.85;7.13;;;;;;;9.73;100.00;101546.00;5042440;28;20601;-82
2023/05/11 03:43:48;;;;;;;10.70;6.72;;;;;;;9.75;100.00;101551.28;4961159;28;20049;-82
2023/05/11 03:46:20;;;;;;;7.57;5.03;;;;;;;9.75;100.00;101559.16;5008959;28;20050;-82
2023/05/11 03:48:49;;;;;;;5.50;4.57;;;;;;;9.72;100.00;101551.22;5011519;28;20049;-83
2023/05/11 03:51:20;;;;;;;6.25;4.47;;;;;;;9.69;100.00;101543.28;5007049;28;20047;-82
2023/05/11 03:53:48;;;;;;;8.77;5.85;;;;;;;9.70;100.00;101545.94;5002897;28;20052;-83
2023/05/11 03:56:15;;;;;;;8.18;5.85;;;;;;;9.72;100.00;101544.22;5001086;28;20060;-82
2023/05/11 03:58:43;;;;;;;11.30;7.47;;;;;;;9.71;100.00;101546.81;4954812;28;20061;-83
2023/05/11 04:01:12;;;;;;;15.57;8.25;;;;;;;9.72;100.00;101552.13;5025477;28;20068;-83
2023/05/11 04:03:48;;;;;;;14.15;7.65;;;;;;;9.73;100.00;101548.63;4979297;28;20046;-84
2023/05/11 04:06:16;;;;;;;14.55;8.43;;;;;;;9.76;100.00;101547.78;5005462;28;20057;-81
2023/05/11 04:08:45;;;;;;;16.57;8.97;;;;;;;9.79;100.00;101550.47;5046675;28;20674;-83
2023/05/11 04:11:13;;;;;;;12.63;8.25;;;;;;;9.82;100.00;101549.66;5004918;28;20065;-83
2023/05/11 04:13:40;;;;;;;17.92;8.98;;;;;;;9.84;100.00;101547.94;5024789;28;20040;-84
2023/05/11 04:16:07;;;;;;;15.85;8.63;;;;;;;9.87;100.00;101546.22;4993297;28;20045;-82
2023/05/11 04:18:35;;;;;;;13.18;8.07;;;;;;;9.92;100.00;101544.56;5026698;28;20037;-83
2023/05/11 04:21:02;;;;;;;13.75;7.90;;;;;;;9.95;100.00;101544.59;5005751;28;20060;-83
2023/05/11 04:23:29;;;;;;;15.55;8.60;;;;;;;10.00;100.00;101535.91;5027283;28;20041;-83
2023/05/11 04:25:58;;;;;;;11.75;7.85;;;;;;;10.01;100.00;101535.94;5020623;28;20061;-84
2023/05/11 04:28:26;;;;;;;13.27;8.07;;;;;;;10.03;100.00;101542.09;5016823;28;20054;-83
2023/05/11 04:30:57;;;;;;;12.60;8.70;;;;;;;10.01;100.00;101551.72;4974763;28;20037;-83
2023/05/11 04:33:24;;;;;;;13.00;8.82;;;;;;;10.02;100.00;101553.50;5000562;28;20073;-83
2023/05/11 04:35:54;;;;;;;12.40;8.15;;;;;;;10.03;100.00;101549.13;5011359;28;20045;-82
2023/05/11 04:38:23;;;;;;;14.18;9.02;;;;;;;10.04;100.00;101553.53;5012325;28;20061;-80
2023/05/11 04:40:52;;;;;;;13.98;8.98;;;;;;;10.03;100.00;101555.25;5000287;28;20060;-82
2023/05/11 04:43:21;;;;;;;13.70;8.73;;;;;;;10.04;100.00;101557.06;5003358;28;20061;-82
2023/05/11 04:45:49;;;;;;;15.98;8.55;;;;;;;10.06;100.00;101564.97;5007162;28;20045;-82
2023/05/11 04:48:21;;;;;;;13.15;9.20;;;;;;;10.07;100.00;101553.56;5021697;28;20054;-82
2023/05/11 04:50:51;;;;;;;15.63;9.40;;;;;;;10.07;100.00;101561.47;4994388;28;20052;-83
2023/05/11 04:53:21;;;;;;;17.92;9.23;;;;;;;10.04;100.00;101559.69;5014096;28;20057;-83
2023/05/11 04:55:48;;;;;;;11.93;8.52;;;;;;;10.08;100.00;101560.63;5027276;28;20053;-83
2023/05/11 04:58:16;;;;;;;11.00;7.82;;;;;;;10.08;100.00;101564.13;4985499;28;20055;-83
2023/05/11 05:00:43;;;;;;;13.07;8.68;;;;;;;10.12;100.00;101563.31;4963470;28;20054;-83
2023/05/11 05:03:11;;;;;;;10.20;7.43;;;;;;;10.13;100.00;101561.56;5030173;28;20054;-83
2023/05/11 05:05:39;;;;;;;14.82;7.95;;;;;;;10.12;100.00;101558.06;4991134;28;20046;-82
2023/05/11 05:08:06;;;;;;;9.23;6.90;;;;;;;10.14;100.00;101571.25;5011479;28;20061;-82
2023/05/11 05:10:37;;;;;;;8.93;6.75;;;;;;;10.14;100.00;101574.75;5011138;28;20058;-83
2023/05/11 05:13:05;;;;;;;6.95;6.15;;;;;;;10.17;100.00;101578.31;4986264;28;20383;-84
2023/05/11 05:15:32;;;;;;;9.27;7.05;;;;;;;10.18;100.00;101586.25;5002112;28;20038;-84
2023/05/11 05:18:00;;;;;;;8.52;6.63;;;;;;;10.15;100.00;101584.47;4980154;28;20060;-83
2023/05/11 05:20:33;;;;;;;9.52;6.82;;;;;;;10.14;100.00;101582.66;4997179;28;20053;-83
2023/05/11 05:23:04;;;;;;;10.25;6.97;;;;;;;10.13;100.00;101580.00;5005510;28;20050;-83
2023/05/11 05:25:34;;;;;;;10.13;6.80;;;;;;;10.08;100.00;101585.22;5008193;28;20407;-83
2023/05/11 05:28:01;;;;;;;7.75;6.47;;;;;;;10.06;100.00;101586.06;5015886;28;20054;-83
2023/05/11 05:30:29;;;;;;;9.18;6.97;;;;;;;10.03;100.00;101589.50;4998249;28;20037;-85
2023/05/11 05:32:56;;;;;;;11.88;6.93;;;;;;;10.02;100.00;101597.38;4949429;28;20066;-84
2023/05/11 05:35:25;;;;;;;11.23;7.10;;;;;;;10.03;100.00;101592.13;5018171;28;20077;-83
2023/05/11 05:37:53;;;;;;;12.48;7.07;;;;;;;10.01;100.00;101592.97;4992997;28;20502;-82
2023/05/11 05:40:21;;;;;;;9.77;7.13;;;;;;;9.97;100.00;101589.41;5015700;28;20419;-83
2023/05/11 05:42:52;;;;;;;10.98;7.65;;;;;;;9.98;100.00;101587.66;4990689;28;20057;-83
2023/05/11 05:45:22;;;;;;;12.13;8.17;;;;;;;9.97;100.00;101592.03;5011993;28;20046;-84
2023/05/11 05:47:50;;;;;;;13.63;7.97;;;;;;;9.94;100.00;101595.50;4993354;28;20303;-84
2023/05/11 05:50:19;;;;;;;17.80;8.68;;;;;;;9.91;100.00;101599.84;4986408;28;20351;-83
2023/05/11 05:52:46;;;;;;;20.58;10.15;;;;;;;9.92;100.00;101604.22;5010099;28;20046;-82
2023/05/11 05:55:14;;;;;;;27.92;9.20;;;;;;;9.94;100.00;101599.88;5008590;28;20064;-84
2023/05/11 05:57:44;;;;;;;24.20;8.95;;;;;;;9.95;100.00;101615.69;4991173;28;20054;-82
2023/05/11 06:00:12;;;;;;;11.70;7.82;;;;;;;9.94;100.00;101613.03;4980264;28;20053;-84
2023/05/11 06:02:42;;;;;;;10.68;6.47;;;;;;;9.92;100.00;101614.75;5008775;28;20121;-84
2023/05/11 06:05:19;;;;;;;10.00;7.47;;;;;;;9.94;100.00;101613.94;4979908;28;20072;-83
2023/05/11 06:07:47;;;;;;;8.77;6.15;;;;;;;10.01;100.00;101619.31;4969828;28;20053;-85
2023/05/11 06:10:34;;;;;;;9.88;5.95;;;;;;;10.07;100.00;101622.91;4998831;28;20068;-84
2023/05/11 06:13:04;;;;;;;7.35;5.57;;;;;;;10.09;100.00;101626.50;4987888;28;20068;-85
2023/05/11 06:15:33;;;;;;;10.40;5.97;;;;;;;10.08;100.00;101637.88;4993745;28;20038;-85
2023/05/11 06:18:07;;;;;;;7.90;5.88;;;;;;;10.04;100.00;101624.66;5008840;28;20427;-84
2023/05/11 06:20:35;;;;;;;6.65;5.35;;;;;;;10.07;100.00;101620.28;4969740;28;20049;-82
2023/05/11 06:23:06;;;;;;;10.30;6.57;;;;;;;10.09;100.00;101623.88;5003636;28;20104;-84
2023/05/11 06:25:38;;;;;;;7.85;6.25;;;;;;;10.09;100.00;101625.59;4998404;28;20046;-85
2023/05/11 06:28:06;;;;;;;9.30;6.90;;;;;;;10.14;100.00;101626.56;4990395;28;20571;-84
2023/05/11 06:30:36;;;;;;;7.25;6.18;;;;;;;10.17;100.00;101620.44;4993948;28;20054;-85
2023/05/11 06:33:05;;;;;;;10.37;7.07;;;;;;;10.20;100.00;101631.94;5011358;28;20049;-83
2023/05/11 06:35:36;;;;;;;11.82;7.07;;;;;;;10.28;100.00;101626.78;4950080;28;20076;-83
2023/05/11 06:38:07;;;;;;;8.45;6.88;;;;;;;10.35;100.00;101631.34;5004581;28;20041;-83
2023/05/11 06:40:35;;;;;;;9.75;6.78;;;;;;;10.43;100.00;101634.09;5006265;28;20042;-83
2023/05/11 06:43:03;;;;;;;9.57;7.28;;;;;;;10.47;100.00;101631.56;4989437;28;20060;-82
2023/05/11 06:45:44;;;;;;;8.52;6.80;;;;;;;10.49;100.00;101637.72;4992955;28;20045;-85
2023/05/11 06:48:12;;;;;;;11.20;8.43;;;;;;;10.50;100.00;101636.84;5008865;28;20486;-83
2023/05/11 06:50:40;;;;;;;10.73;8.68;;;;;;;10.51;100.00;101646.56;4942371;28;21336;-82
2023/05/11 06:53:12;;;;;;;9.88;6.95;;;;;;;10.55;100.00;101639.59;4999327;28;20499;-83
2023/05/11 06:55:40;;;;;;;8.13;6.72;;;;;;;10.65;100.00;101651.16;4989472;28;20049;-82
2023/05/11 06:58:07;;;;;;;8.52;6.82;;;;;;;10.66;100.00;101631.81;5007397;28;20045;-83
2023/05/11 07:00:34;;;;;;;8.50;7.32;;;;;;;10.67;100.00;101634.47;5012850;28;20179;-83
2023/05/11 07:03:02;;;;;;;8.95;7.22;;;;;;;10.71;100.00;101641.56;5020563;28;20061;-83
2023/05/11 07:05:30;;;;;;;8.85;7.05;;;;;;;10.78;100.00;101636.41;4975125;28;20045;-83
2023/05/11 07:08:00;;;;;;;12.00;7.60;;;;;;;10.86;100.00;101645.31;5049287;28;20064;-83
2023/05/11 07:10:28;;;;;;;8.95;6.45;;;;;;;10.87;100.00;101655.88;5006155;28;20502;-83
2023/05/11 07:12:55;;;;;;;8.57;6.68;;;;;;;10.93;100.00;101652.47;5032332;28;20045;-84
2023/05/11 07:15:23;;;;;;;8.85;7.15;;;;;;;10.92;100.00;101656.81;4993741;28;20445;-85
2023/05/11 07:17:51;;;;;;;8.02;6.82;;;;;;;10.89;100.00;101659.44;4995797;28;20053;-83
2023/05/11 07:20:19;;;;;;;8.90;6.50;;;;;;;10.90;100.00;101650.66;5010451;28;20098;-82
2023/05/11 07:22:46;;;;;;;9.43;7.15;;;;;;;10.91;100.00;101654.19;4936698;28;20058;-82
2023/05/11 07:25:14;;;;;;;8.38;7.10;;;;;;;10.92;100.00;101659.47;5006726;28;20052;-84
2023/05/11 07:27:41;;;;;;;10.50;6.82;;;;;;;10.97;100.00;101656.03;5003783;28;20049;-84
2023/05/11 07:30:09;;;;;;;8.65;7.03;;;;;;;11.03;100.00;101661.38;4989041;28;20049;-84
2023/05/11 07:32:37;;;;;;;8.07;6.80;;;;;;;11.09;100.00;101664.97;5018263;28;20527;-84
2023/05/11 07:35:06;;;;;;;8.95;6.40;;;;;;;11.16;100.00;101668.59;4998992;28;20061;-84
2023/05/11 07:37:34;;;;;;;6.85;6.20;;;;;;;11.25;100.00;101660.81;5010524;28;20046;-83
2023/05/11 07:40:05;;;;;;;7.38;6.15;;;;;;;11.31;100.00;101660.88;4989425;28;20064;-84
2023/05/11 07:42:32;;;;;;;7.00;5.95;;;;;;;11.39;100.00;101660.09;5008492;28;20050;-84
2023/05/11 07:45:00;;;;;;;7.20;5.75;;;;;;;11.46;100.00;101652.28;4997849;28;20058;-83
2023/05/11 07:47:27;;;;;;;6.95;5.90;;;;;;;11.57;100.00;101662.06;5003219;28;20057;-84
2023/05/11 07:49:56;;;;;;;6.55;5.88;;;;;;;11.70;100.00;101654.34;5005035;28;20471;-84
2023/05/11 07:52:23;;;;;;;7.57;5.72;;;;;;;11.78;100.00;101650.91;4992590;28;20043;-83
2023/05/11 07:54:50;;;;;;;6.70;5.30;;;;;;;11.82;100.00;101655.34;5009667;28;20061;-84
2023/05/11 07:57:18;;;;;;;7.10;6.10;;;;;;;11.81;100.00;101664.13;4989437;28;20046;-82
2023/05/11 07:59:46;;;;;;;7.90;6.30;;;;;;;11.76;100.00;101671.09;4998690;28;20082;-83
2023/05/11 08:02:13;;;;;;;9.82;6.75;;;;;;;11.72;100.00;101667.56;4993641;28;20061;-84
2023/05/11 08:04:40;;;;;;;8.18;6.50;;;;;;;11.69;100.00;101671.03;4983201;28;20069;-83
2023/05/11 08:07:07;;;;;;;9.07;6.70;;;;;;;11.76;100.00;101671.09;4977777;28;20058;-83
2023/05/11 08:09:35;;;;;;;7.72;6.50;;;;;;;11.76;100.00;101677.28;5027866;28;20050;-84
2023/05/11 08:12:03;;;;;;;12.77;8.25;;;;;;;11.71;100.00;101673.69;5007631;28;20046;-83
2023/05/11 08:14:35;;;;;;;15.02;8.75;;;;;;;11.65;100.00;101676.28;4990903;28;20081;-83
2023/05/11 08:17:02;;;;;;;14.90;8.68;;;;;;;11.62;100.00;101682.38;5011320;28;20050;-84
2023/05/11 08:19:29;;;;;;;17.27;9.52;;;;;;;11.66;100.00;101681.59;5028027;28;20046;-83
2023/05/11 08:21:57;;;;;;;20.33;11.80;;;;;;;11.70;100.00;101683.38;5000942;28;20053;-83
2023/05/11 08:24:24;;;;;;;24.30;13.20;;;;;;;11.78;100.00;101677.31;4948256;28;20061;-82
2023/05/11 08:26:51;;;;;;;24.98;14.00;;;;;;;11.75;100.00;101679.91;5007139;28;20043;-83
2023/05/11 08:29:19;;;;;;;24.25;12.73;;;;;;;11.66;100.00;101680.66;5015038;28;20423;-84
2023/05/11 08:31:49;;;;;;;24.50;12.70;;;;;;;11.63;100.00;101689.44;4968927;28;23873;-81
2023/05/11 08:34:16;;;;;;;16.95;9.57;;;;;;;11.64;100.00;101696.47;4981133;28;20415;-81
2023/05/11 08:36:46;;;;;;;15.00;8.95;;;;;;;11.60;100.00;101693.81;4999511;28;20050;-81
2023/05/11 08:39:14;;;;;;;12.63;8.88;;;;;;;11.61;100.00;101698.22;4953750;28;20058;-80
2023/05/11 08:42:01;;;;;;;11.05;7.57;;;;;;;11.65;100.00;101697.41;4996690;28;20832;-81
2023/05/11 08:44:31;;;;;;;13.23;8.13;;;;;;;11.69;100.00;101696.56;4991850;28;20065;-80
2023/05/11 08:46:59;;;;;;;6.20;5.60;;;;;;;11.68;100.00;101698.31;4982663;28;20041;-81
2023/05/11 08:49:47;;;;;;;7.22;6.05;;;;;;;11.68;100.00;101694.78;4994170;28;20301;-81
2023/05/11 08:52:17;;;;;;;6.97;5.57;;;;;;;11.74;100.00;101694.88;4974306;28;20054;-81
2023/05/11 08:54:45;;;;;;;5.25;4.75;;;;;;;11.86;100.00;101702.91;4969836;28;20042;-82
2023/05/11 08:57:13;;;;;;;6.07;4.93;;;;;;;11.96;100.00;101698.66;4985751;28;20483;-82
2023/05/11 08:59:43;;;;;;;5.35;4.30;;;;;;;12.09;100.00;101700.56;5005270;28;20050;-82
2023/05/11 09:02:16;;;;;;;5.88;4.53;;;;;;;12.15;100.00;101701.50;4989411;28;20396;-81
2023/05/11 09:04:44;;;;;;;3.88;3.58;;;;;;;12.19;100.00;101700.66;5005636;28;20049;-81
2023/05/11 09:07:16;;;;;;;4.60;4.20;;;;;;;12.21;100.00;101705.09;4987107;28;20050;-81
2023/05/11 09:09:45;;;;;;;4.55;3.70;;;;;;;12.22;100.00;101695.41;4933388;28;20053;-81
2023/05/11 09:12:15;;;;;;;4.10;3.67;;;;;;;12.26;100.00;101697.22;4995084;28;20053;-80
2023/05/11 09:14:43;;;;;;;3.95;3.65;;;;;;;12.32;100.00;101694.63;5001792;28;20094;-81
2023/05/11 09:17:11;;;;;;;3.80;3.50;;;;;;;12.47;100.00;101701.81;4971608;28;20049;-81
2023/05/11 09:20:05;;;;;;;3.80;3.50;;;;;;;12.48;100.00;101693.91;4979632;28;20062;-81
2023/05/11 09:22:39;;;;;;;56.00;10.60;;;;;;;12.50;100.00;101696.56;5013210;28;20061;-81
2023/05/11 09:25:10;;;;;;;3.80;3.50;;;;;;;12.56;100.00;101701.00;5021735;28;20052;-81
2023/05/11 09:27:46;;;;;;;4.78;4.20;;;;;;;12.60;100.00;101697.53;4968092;28;20042;-81
2023/05/11 09:30:18;;;;;;;45.05;8.90;;;;;;;12.62;100.00;101693.13;4981224;28;20053;-81
2023/05/11 09:32:52;;;;;;;3.50;3.03;;;;;;;12.64;100.00;101702.84;4989242;28;20052;-81
2023/05/11 09:35:28;;;;;;;5.05;3.67;;;;;;;12.70;100.00;101706.41;4983921;28;20053;-81
2023/05/11 09:38:07;;;;;;;6.85;3.80;;;;;;;12.74;100.00;101703.81;5037927;28;20046;-82
2023/05/11 09:40:45;;;;;;;3.90;3.60;;;;;;;12.87;100.00;101700.41;5006747;28;20053;-80
2023/05/11 09:43:18;;;;;;;3.13;2.90;;;;;;;12.96;100.00;101701.31;4966297;28;20058;-80
2023/05/11 09:45:50;;;;;;;3.67;3.38;;;;;;;13.02;100.00;101696.97;5000585;28;20084;-81
2023/05/11 09:48:18;;;;;;;3.60;3.30;;;;;;;13.10;100.00;101699.66;4997314;28;20053;-80
2023/05/11 09:50:51;;;;;;;3.10;2.90;;;;;;;13.12;100.00;101697.91;4978473;28;20054;-80
2023/05/11 09:53:18;;;;;;;3.00;2.80;;;;;;;13.26;100.00;101696.22;5015309;28;20060;-80
2023/05/11 09:55:54;;;;;;;2.97;2.78;;;;;;;13.43;100.00;101687.53;4970929;28;20065;-81
2023/05/11 09:58:22;;;;;;;2.70;2.53;;;;;;;13.56;100.00;101694.63;4947381;28;20054;-81
2023/05/11 10:00:52;;;;;;;2.88;2.63;;;;;;;13.66;100.00;101700.84;4955270;28;20057;-80
2023/05/11 10:03:20;;;;;;;;;;;;;;;13.67;100.00;101696.44;4978556;28;20050;-79
2023/05/11 10:05:59;;;;;;;2.78;2.58;;;;;;;13.72;100.00;101692.03;4994670;28;19930;-79
2023/05/11 10:08:28;;;;;;;2.95;2.63;;;;;;;13.79;100.00;101688.53;5028050;28;20049;-80
2023/05/11 10:10:56;;;;;;;2.28;2.17;;;;;;;13.80;100.00;101687.69;4991758;28;20041;-79
2023/05/11 10:13:25;;;;;;;2.85;2.65;;;;;;;13.88;100.00;101690.34;4939603;28;20105;-81
2023/05/11 10:15:55;;;;;;;140.82;20.33;;;;;;;13.89;100.00;101700.94;4980522;28;20050;-81
2023/05/11 10:18:23;;;;;;;33.90;6.45;;;;;;;13.93;100.00;101689.50;4980606;28;20045;-80
2023/05/11 10:20:51;;;;;;;2.72;2.53;;;;;;;14.05;100.00;101691.28;5020499;28;20046;-80
2023/05/11 10:23:19;;;;;;;3.58;2.83;;;;;;;14.03;100.00;101685.97;4998101;28;20137;-79
2023/05/11 10:25:48;;;;;;;3.38;2.35;;;;;;;14.06;100.00;101703.63;4973079;28;20085;-80
2023/05/11 10:28:16;;;;;;;18.92;4.28;;;;;;;13.96;100.00;101704.50;4961961;28;20045;-79
2023/05/11 10:30:44;;;;;;;2.80;2.60;;;;;;;13.87;100.00;101700.03;4979069;28;20814;-79
2023/05/11 10:33:12;;;;;;;4.35;2.47;;;;;;;13.85;100.00;101701.81;4980484;28;20050;-78
2023/05/11 10:35:40;;;;;;;4.88;2.83;;;;;;;13.82;100.00;101693.88;4986601;28;20812;-79
2023/05/11 10:38:08;;;;;;;3.58;3.15;;;;;;;13.78;100.00;101695.63;4995800;28;20049;-80
2023/05/11 10:40:39;;;;;;;10.25;4.35;;;;;;;13.84;100.00;101700.06;4999800;28;20050;-81
2023/05/11 10:43:07;;;;;;;3.67;3.35;;;;;;;13.79;100.00;101700.03;4947212;28;20049;-80
2023/05/11 10:45:43;;;;;;;3.28;3.08;;;;;;;13.76;100.00;101699.13;4979843;28;20507;-80
2023/05/11 10:48:30;;;;;;;3.45;3.10;;;;;;;13.81;100.00;101702.69;5005607;28;20057;-79
2023/05/11 10:51:32;;;;;;;56.22;10.38;;;;;;;13.89;100.00;101703.59;4990111;28;20045;-81
2023/05/11 10:54:13;;;;;;;4.32;3.97;;;;;;;13.92;100.00;101705.38;4992610;28;20054;-81
2023/05/11 10:57:10;;;;;;;5.10;4.57;;;;;;;13.81;100.00;101700.91;4991231;28;20117;-81
2023/05/11 11:00:05;;;;;;;4.97;4.57;;;;;;;13.89;100.00;101694.75;4943064;28;20077;-81
2023/05/11 11:02:33;;;;;;;4.85;4.35;;;;;;;13.96;100.00;101705.38;4981313;28;20054;-81
2023/05/11 11:05:04;;;;;;;6.97;4.80;;;;;;;14.08;100.00;101707.16;4989216;28;20496;-81
2023/05/11 11:08:04;;;;;;;5.30;4.90;;;;;;;14.20;100.00;101695.72;4971105;28;20049;-81
2023/05/11 11:10:50;;;;;;;5.03;4.63;;;;;;;14.31;100.00;101706.31;5000605;28;20057;-81
2023/05/11 11:13:19;;;;;;;7.47;6.15;;;;;;;14.34;100.00;101698.38;4925867;28;20050;-80
2023/05/11 11:15:52;;;;;;;7.20;6.60;;;;;;;14.35;100.00;101705.47;4996313;28;20046;-81
2023/05/11 11:18:32;;;;;;;8.23;6.20;;;;;;;14.46;100.00;101700.16;5026246;28;20054;-81
2023/05/11 11:21:03;;;;;;;9.52;6.90;;;;;;;14.56;100.00;101704.59;4986149;28;20798;-78
2023/05/11 11:23:43;;;;;;;7.80;6.63;;;;;;;14.61;100.00;101711.72;5002461;28;20058;-78
2023/05/11 11:26:16;;;;;;;8.93;7.82;;;;;;;14.73;100.00;101709.94;5009759;28;20443;-78
2023/05/11 11:29:01;;;;;;;11.63;7.28;;;;;;;14.81;100.00;101713.47;4952018;28;20073;-78
2023/05/11 11:31:30;;;;;;;8.70;7.78;;;;;;;15.03;100.00;101709.03;5010931;28;20508;-79